createdAt,value
2019-05-21T00:00:40.066Z,81.29
2019-05-21T00:03:43.764Z,81.11
2019-05-21T00:06:47.466Z,80.42
2019-05-21T00:09:51.166Z,80.81
2019-05-21T00:12:54.866Z,81.08
2019-05-21T00:15:58.561Z,80.77
2019-05-21T00:19:02.272Z,80.11
2019-05-21T00:22:06.346Z,80.25
2019-05-21T00:25:10.278Z,81.33
2019-05-21T00:28:37.465Z,82.23
2019-05-21T00:32:17.377Z,82.35
2019-05-21T00:35:57.720Z,81.85
2019-05-21T00:39:37.388Z,82.12
2019-05-21T00:42:44.540Z,82.42
2019-05-21T00:45:48.238Z,82.41
2019-05-21T00:48:52.019Z,82.33
2019-05-21T00:52:07.001Z,82.09
2019-05-21T00:55:01.218Z,81.24
2019-05-21T00:58:04.909Z,82.02
2019-05-21T01:01:08.600Z,81.72
2019-05-21T01:04:12.694Z,82.07
2019-05-21T01:07:16.394Z,81.48
2019-05-21T01:10:20.091Z,82.10
2019-05-21T01:13:23.853Z,81.80
2019-05-21T01:16:27.556Z,81.82
2019-05-21T01:19:31.255Z,81.90
2019-05-21T01:22:34.963Z,82.07
2019-05-21T01:25:38.669Z,82.83
2019-05-21T01:28:42.776Z,82.31
2019-05-21T01:31:46.473Z,81.92
2019-05-21T01:34:50.557Z,81.34
2019-05-21T01:37:54.546Z,82.17
2019-05-21T01:40:58.585Z,81.71
2019-05-21T01:44:02.728Z,81.85
2019-05-21T01:47:06.623Z,82.13
2019-05-21T01:50:10.886Z,82.02
2019-05-21T01:53:14.552Z,81.28
2019-05-21T01:56:18.328Z,81.28
2019-05-21T01:59:22.034Z,81.83
2019-05-21T02:02:25.736Z,82.01
2019-05-21T02:05:33.045Z,81.60
2019-05-21T02:08:35.581Z,81.74
2019-05-21T02:11:39.619Z,81.93
2019-05-21T02:14:43.331Z,82.30
2019-05-21T02:17:47.037Z,82.60
2019-05-21T02:20:50.751Z,82.28
2019-05-21T02:23:54.454Z,81.75
2019-05-21T02:26:58.160Z,82.54
2019-05-21T02:30:02.049Z,82.93
2019-05-21T02:33:06.239Z,82.90
2019-05-21T02:36:10.004Z,82.07
2019-05-21T02:39:13.788Z,82.90
2019-05-21T02:42:17.497Z,83.15
2019-05-21T02:45:21.462Z,83.12
2019-05-21T02:48:25.244Z,83.05
2019-05-21T02:51:28.958Z,82.57
2019-05-21T02:54:40.992Z,82.74
2019-05-21T02:57:39.612Z,83.18
2019-05-21T03:01:01.120Z,82.33
2019-05-21T03:04:05.192Z,82.47
2019-05-21T03:07:18.100Z,82.67
2019-05-21T03:10:21.783Z,82.48
2019-05-21T03:13:25.505Z,83.18
2019-05-21T03:16:29.232Z,83.31
2019-05-21T03:19:33.009Z,83.47
2019-05-21T03:22:36.907Z,83.04
2019-05-21T03:25:41.170Z,82.82
2019-05-21T03:28:44.892Z,83.64
2019-05-21T03:31:48.607Z,83.53
2019-05-21T03:34:52.471Z,83.53
2019-05-21T03:37:56.626Z,84.03
2019-05-21T03:41:00.634Z,83.85
2019-05-21T03:44:04.428Z,84.18
2019-05-21T03:47:08.144Z,83.86
2019-05-21T03:50:12.163Z,83.06
2019-05-21T03:53:15.880Z,83.71
2019-05-21T03:56:19.594Z,83.55
2019-05-21T03:59:23.309Z,83.79
2019-05-21T04:02:27.034Z,83.52
2019-05-21T04:05:30.816Z,83.52
2019-05-21T04:08:34.532Z,83.64
2019-05-21T04:11:38.545Z,83.87
2019-05-21T04:14:46.604Z,83.92
2019-05-21T04:17:56.436Z,83.80
2019-05-21T04:21:00.163Z,83.89
2019-05-21T04:24:08.317Z,83.69
2019-05-21T04:27:09.643Z,84.04
2019-05-21T04:30:13.682Z,84.11
2019-05-21T04:33:17.405Z,84.08
2019-05-21T04:36:21.181Z,83.97
2019-05-21T04:39:25.312Z,83.93
2019-05-21T04:42:29.003Z,83.52
2019-05-21T04:45:32.729Z,83.77
2019-05-21T04:48:36.461Z,84.34
2019-05-21T04:51:40.170Z,83.91
2019-05-21T04:54:43.968Z,84.34
2019-05-21T04:57:47.671Z,84.46
2019-05-21T05:00:51.458Z,84.20
2019-05-21T05:03:55.168Z,84.09
2019-05-21T05:06:58.901Z,84.92
2019-05-21T05:10:02.679Z,84.07
2019-05-21T05:13:06.378Z,83.83
2019-05-21T05:16:10.084Z,84.17
2019-05-21T05:19:13.868Z,84.31
2019-05-21T05:22:17.617Z,84.32
2019-05-21T05:25:21.390Z,84.46
2019-05-21T05:28:25.106Z,84.29
2019-05-21T05:31:28.853Z,84.17
2019-05-21T05:34:32.827Z,84.68
2019-05-21T05:37:44.095Z,84.65
2019-05-21T05:40:41.963Z,84.12
2019-05-21T05:43:45.667Z,84.64
2019-05-21T05:46:49.404Z,85.14
2019-05-21T05:49:54.887Z,84.45
2019-05-21T05:52:58.609Z,84.62
2019-05-21T05:56:02.312Z,85.08
2019-05-21T05:59:06.005Z,85.07
2019-05-21T06:02:09.707Z,84.96
2019-05-21T06:05:13.954Z,85.15
2019-05-21T06:08:17.664Z,84.77
2019-05-21T06:11:21.355Z,85.31
2019-05-21T06:14:25.460Z,84.79
2019-05-21T06:17:29.141Z,85.28
2019-05-21T06:20:33.180Z,85.27
2019-05-21T06:23:36.873Z,85.82
2019-05-21T06:26:40.675Z,86.11
2019-05-21T06:29:44.379Z,86.12
2019-05-21T06:32:48.159Z,86.02
2019-05-21T06:35:51.865Z,85.39
2019-05-21T06:38:55.619Z,85.67
2019-05-21T06:41:59.313Z,85.22
2019-05-21T06:45:03.499Z,84.73
2019-05-21T06:48:07.435Z,83.95
2019-05-21T06:51:11.132Z,83.99
2019-05-21T06:54:14.841Z,84.14
2019-05-21T06:57:18.686Z,83.85
2019-05-21T07:00:22.501Z,83.80
2019-05-21T07:03:26.625Z,83.28
2019-05-21T07:06:30.353Z,82.55
2019-05-21T07:09:34.128Z,83.09
2019-05-21T07:12:38.409Z,83.13
2019-05-21T07:15:42.503Z,83.36
2019-05-21T07:18:46.627Z,83.39
2019-05-21T07:21:50.403Z,83.77
2019-05-21T07:24:54.197Z,84.33
2019-05-21T07:27:57.901Z,84.75
2019-05-21T07:31:01.616Z,85.04
2019-05-21T07:34:05.476Z,85.17
2019-05-21T07:37:09.506Z,85.13
2019-05-21T07:40:14.481Z,85.60
2019-05-21T07:43:18.199Z,85.29
2019-05-21T07:46:21.970Z,84.54
2019-05-21T07:49:25.680Z,84.24
2019-05-21T07:52:30.072Z,84.01
2019-05-21T07:55:34.247Z,83.86
2019-05-21T07:58:37.987Z,83.26
2019-05-21T08:01:41.704Z,83.22
2019-05-21T08:04:45.415Z,83.64
2019-05-21T08:07:49.469Z,83.41
2019-05-21T08:10:53.257Z,82.85
2019-05-21T08:13:57.570Z,82.92
2019-05-21T08:17:01.290Z,83.51
2019-05-21T08:20:09.851Z,83.34
2019-05-21T08:23:11.580Z,83.58
2019-05-21T08:26:15.781Z,82.05
2019-05-21T08:29:19.508Z,82.56
2019-05-21T08:32:23.205Z,82.76
2019-05-21T08:35:26.932Z,82.83
2019-05-21T08:38:30.628Z,82.68
2019-05-21T08:41:34.347Z,82.55
2019-05-21T08:44:38.052Z,82.73
2019-05-21T08:47:41.838Z,82.23
2019-05-21T08:50:45.583Z,82.24
2019-05-21T08:53:49.248Z,82.25
2019-05-21T08:56:52.963Z,82.74
2019-05-21T08:59:56.660Z,83.26
2019-05-21T09:03:00.387Z,81.96
2019-05-21T09:06:04.191Z,82.83
2019-05-21T09:09:08.042Z,82.87
2019-05-21T09:12:11.823Z,83.15
2019-05-21T09:15:15.874Z,82.71
2019-05-21T09:18:19.593Z,82.57
2019-05-21T09:21:23.384Z,82.72
2019-05-21T09:24:27.083Z,82.69
2019-05-21T09:27:30.821Z,82.44
2019-05-21T09:30:34.589Z,81.74
2019-05-21T09:33:38.305Z,82.18
2019-05-21T09:36:42.015Z,82.44
2019-05-21T09:39:45.720Z,82.23
2019-05-21T09:42:49.433Z,82.70
2019-05-21T09:45:53.136Z,82.55
2019-05-21T09:48:56.852Z,83.42
2019-05-21T09:52:00.569Z,83.17
2019-05-21T09:55:04.653Z,83.72
2019-05-21T09:58:33.579Z,83.84
2019-05-21T10:01:47.447Z,83.86
2019-05-21T10:04:48.834Z,84.59
2019-05-21T10:07:52.544Z,84.12
2019-05-21T10:10:56.238Z,83.60
2019-05-21T10:13:59.945Z,83.70
2019-05-21T10:17:03.731Z,82.72
2019-05-21T10:20:07.952Z,83.49
2019-05-21T10:23:11.658Z,83.53
2019-05-21T10:26:15.606Z,82.97
2019-05-21T10:29:19.364Z,83.18
2019-05-21T10:32:23.049Z,83.34
2019-05-21T10:35:26.763Z,83.30
2019-05-21T10:38:30.534Z,82.42
2019-05-21T10:41:34.261Z,82.24
2019-05-21T10:44:38.393Z,82.62
2019-05-21T10:47:42.282Z,82.02
2019-05-21T10:50:46.007Z,81.77
2019-05-21T10:53:49.727Z,81.60
2019-05-21T10:56:53.452Z,81.69
2019-05-21T10:59:57.158Z,80.65
2019-05-21T11:03:14.373Z,80.14
2019-05-21T11:06:18.088Z,81.15
2019-05-21T11:09:22.312Z,81.04
2019-05-21T11:12:26.230Z,80.74
2019-05-21T11:15:29.962Z,80.90
2019-05-21T11:18:34.034Z,80.79
2019-05-21T11:21:38.010Z,80.82
2019-05-21T11:24:41.718Z,80.16
2019-05-21T11:27:45.451Z,80.74
2019-05-21T11:30:49.451Z,80.75
2019-05-21T11:33:53.329Z,80.68
2019-05-21T11:36:57.045Z,81.08
2019-05-21T11:40:00.823Z,80.87
2019-05-21T11:43:04.851Z,81.05
2019-05-21T11:46:08.665Z,81.63
2019-05-21T11:49:12.455Z,80.99
2019-05-21T11:52:16.177Z,81.42
2019-05-21T11:55:19.958Z,81.21
2019-05-21T11:58:23.823Z,81.30
2019-05-21T12:01:27.893Z,81.05
2019-05-21T12:04:31.605Z,80.90
2019-05-21T12:07:35.307Z,80.39
2019-05-21T12:10:39.266Z,80.41
2019-05-21T12:13:42.997Z,80.21
2019-05-21T12:16:46.715Z,80.50
2019-05-21T12:19:50.438Z,80.43
2019-05-21T12:22:54.170Z,79.86
2019-05-21T12:25:58.340Z,79.92
2019-05-21T12:29:02.687Z,79.79
2019-05-21T12:32:06.394Z,79.85
2019-05-21T12:35:10.350Z,80.51
2019-05-21T12:38:14.056Z,80.22
2019-05-21T12:41:17.797Z,80.11
2019-05-21T12:44:21.816Z,80.01
2019-05-21T12:47:25.925Z,80.02
2019-05-21T12:50:29.764Z,80.61
2019-05-21T12:53:33.555Z,79.55
2019-05-21T12:56:40.647Z,79.43
2019-05-21T12:59:42.713Z,79.81
2019-05-21T13:02:46.559Z,79.51
2019-05-21T13:05:50.527Z,79.79
2019-05-21T13:08:54.256Z,80.37
2019-05-21T13:11:57.949Z,79.69
2019-05-21T13:15:01.659Z,80.40
2019-05-21T13:18:05.932Z,79.57
2019-05-21T13:21:09.630Z,80.22
2019-05-21T13:24:13.498Z,79.52
2019-05-21T13:27:17.267Z,79.35
2019-05-21T13:30:21.915Z,79.56
2019-05-21T13:33:25.698Z,79.35
2019-05-21T13:36:29.414Z,79.80
2019-05-21T13:39:48.914Z,80.02
2019-05-21T13:42:38.754Z,80.36
2019-05-21T13:45:42.458Z,79.66
2019-05-21T13:48:47.087Z,79.56
2019-05-21T13:51:51.099Z,79.84
2019-05-21T13:54:54.790Z,79.73
2019-05-21T13:57:58.879Z,80.07
2019-05-21T14:01:02.935Z,79.58
2019-05-21T14:04:06.916Z,79.48
2019-05-21T14:07:10.813Z,79.39
2019-05-21T14:10:19.975Z,79.57
2019-05-21T14:13:20.570Z,79.36
2019-05-21T14:16:24.398Z,79.97
2019-05-21T14:19:28.764Z,79.95
2019-05-21T14:22:36.430Z,80.29
2019-05-21T14:25:37.910Z,82.02
2019-05-21T14:28:41.658Z,83.07
2019-05-21T14:31:45.369Z,83.48
2019-05-21T14:35:01.003Z,84.78
2019-05-21T14:37:54.515Z,85.29
2019-05-21T14:40:58.213Z,85.72
2019-05-21T14:44:02.556Z,85.85
2019-05-21T14:47:06.658Z,86.14
2019-05-21T14:50:10.848Z,85.71
2019-05-21T14:53:14.870Z,85.53
2019-05-21T14:56:18.606Z,85.67
2019-05-21T14:59:22.318Z,85.61
2019-05-21T15:02:26.071Z,85.69
2019-05-21T15:05:30.675Z,85.92
2019-05-21T15:08:34.714Z,85.70
2019-05-21T15:11:38.439Z,85.33
2019-05-21T15:14:42.265Z,85.64
2019-05-21T15:17:45.994Z,85.50
2019-05-21T15:20:57.866Z,85.52
2019-05-21T15:24:02.815Z,85.36
2019-05-21T15:27:06.749Z,85.93
2019-05-21T15:30:11.551Z,85.71
2019-05-21T15:33:15.277Z,86.00
2019-05-21T15:36:19.078Z,85.71
2019-05-21T15:39:22.780Z,85.98
2019-05-21T15:42:26.579Z,85.78
2019-05-21T15:45:30.289Z,86.50
2019-05-21T15:48:34.006Z,85.75
2019-05-21T15:51:37.716Z,86.19
2019-05-21T15:54:41.687Z,86.74
2019-05-21T15:57:45.429Z,87.51
2019-05-21T16:00:49.569Z,87.51
2019-05-21T16:03:53.272Z,89.56
2019-05-21T16:06:57.761Z,88.57
2019-05-21T16:10:01.480Z,88.47
2019-05-21T16:13:05.278Z,88.05
2019-05-21T16:16:09.358Z,88.28
2019-05-21T16:19:13.370Z,88.97
2019-05-21T16:22:17.086Z,88.98
2019-05-21T16:25:21.206Z,88.39
2019-05-21T16:28:24.919Z,88.30
2019-05-21T16:31:28.803Z,89.80
2019-05-21T16:34:32.548Z,88.79
2019-05-21T16:37:36.527Z,88.38
2019-05-21T16:40:40.261Z,88.29
2019-05-21T16:43:44.671Z,88.75
2019-05-21T16:46:48.483Z,88.74
2019-05-21T16:49:52.778Z,88.04
2019-05-21T16:52:56.578Z,88.13
2019-05-21T16:56:00.832Z,88.77
2019-05-21T16:59:04.654Z,88.41
2019-05-21T17:02:08.424Z,88.61
2019-05-21T17:05:13.847Z,88.81
2019-05-21T17:08:17.573Z,88.37
2019-05-21T17:11:21.300Z,88.68
2019-05-21T17:14:25.015Z,88.20
2019-05-21T17:17:28.754Z,88.87
2019-05-21T17:20:34.258Z,88.42
2019-05-21T17:23:38.604Z,87.88
2019-05-21T17:26:43.077Z,88.44
2019-05-21T17:29:47.181Z,88.67
2019-05-21T17:32:50.900Z,89.67
2019-05-21T17:35:54.684Z,88.17
2019-05-21T17:38:58.453Z,88.86
2019-05-21T17:42:14.754Z,88.45
2019-05-21T17:45:07.871Z,88.07
2019-05-21T17:48:11.793Z,88.93
2019-05-21T17:51:15.501Z,89.85
2019-05-21T17:54:19.306Z,88.66
2019-05-21T17:57:23.414Z,89.01
2019-05-21T18:00:44.848Z,89.52
2019-05-21T18:03:49.109Z,88.58
2019-05-21T18:06:52.973Z,90.25
2019-05-21T18:09:56.966Z,90.05
2019-05-21T18:13:00.956Z,90.55
2019-05-21T18:16:06.104Z,88.89
2019-05-21T18:19:10.504Z,88.95
2019-05-21T18:22:18.263Z,88.73
2019-05-21T18:25:23.404Z,89.77
2019-05-21T18:28:27.306Z,89.78
2019-05-21T18:31:31.022Z,89.27
2019-05-21T18:34:34.834Z,89.62
2019-05-21T18:37:39.138Z,90.30
2019-05-21T18:40:43.144Z,89.59
2019-05-21T18:43:49.865Z,90.33
2019-05-21T18:46:52.454Z,89.87
2019-05-21T18:49:56.218Z,90.01
2019-05-21T18:53:00.375Z,90.66
2019-05-21T18:56:04.532Z,90.95
2019-05-21T18:59:08.548Z,90.74
2019-05-21T19:02:14.596Z,90.82
2019-05-21T19:05:18.413Z,90.08
2019-05-21T19:08:22.218Z,90.87
2019-05-21T19:11:26.345Z,91.02
2019-05-21T19:14:30.162Z,90.71
2019-05-21T19:17:35.867Z,91.27
2019-05-21T19:20:39.558Z,90.80
2019-05-21T19:23:43.809Z,91.01
2019-05-21T19:26:47.542Z,90.74
2019-05-21T19:29:52.432Z,89.72
2019-05-21T19:32:56.247Z,89.87
2019-05-21T19:36:00.306Z,90.93
2019-05-21T19:39:05.193Z,90.74
2019-05-21T19:42:09.621Z,90.42
2019-05-21T19:45:13.946Z,90.71
2019-05-21T19:48:18.037Z,91.40
2019-05-21T19:51:21.814Z,90.79
2019-05-21T19:54:25.625Z,90.44
2019-05-21T19:57:30.818Z,90.58
2019-05-21T20:00:39.129Z,91.01
2019-05-21T20:03:43.370Z,90.84
2019-05-21T20:06:47.580Z,90.94
2019-05-21T20:09:51.977Z,90.78
2019-05-21T20:12:55.823Z,90.22
2019-05-21T20:16:00.991Z,90.17
2019-05-21T20:19:06.069Z,90.50
2019-05-21T20:22:11.446Z,90.32
2019-05-21T20:25:16.592Z,91.25
2019-05-21T20:28:20.690Z,90.71
2019-05-21T20:31:24.927Z,90.69
2019-05-21T20:34:29.065Z,91.04
2019-05-21T20:37:34.399Z,90.80
2019-05-21T20:40:38.737Z,90.83
2019-05-21T20:43:56.841Z,90.55
2019-05-21T20:46:49.084Z,90.43
2019-05-21T20:49:52.815Z,90.69
2019-05-21T20:52:57.251Z,90.56
2019-05-21T20:56:01.442Z,91.07
2019-05-21T20:59:06.435Z,90.45
2019-05-21T21:02:11.876Z,90.29
2019-05-21T21:05:16.578Z,90.33
2019-05-21T21:08:20.601Z,90.49
2019-05-21T21:11:25.886Z,90.43
2019-05-21T21:14:30.190Z,90.33
2019-05-21T21:17:33.983Z,90.43
2019-05-21T21:20:38.327Z,90.43
2019-05-21T21:23:42.883Z,89.99
2019-05-21T21:26:46.859Z,90.00
2019-05-21T21:29:51.180Z,89.83
2019-05-21T21:32:56.645Z,89.42
2019-05-21T21:36:00.371Z,89.99
2019-05-21T21:39:06.355Z,90.18
2019-05-21T21:42:10.313Z,89.30
2019-05-21T21:45:14.661Z,89.54
2019-05-21T21:48:18.524Z,89.01
2019-05-21T21:51:22.842Z,89.14
2019-05-21T21:54:26.983Z,90.02
2019-05-21T21:57:30.688Z,90.02
2019-05-21T22:01:31.183Z,89.17
2019-05-21T22:04:36.437Z,89.22
2019-05-21T22:07:40.485Z,90.06
2019-05-21T22:10:47.688Z,89.52
2019-05-21T22:13:51.850Z,89.60
2019-05-21T22:16:55.923Z,88.99
2019-05-21T22:19:59.896Z,89.32
2019-05-21T22:23:03.828Z,88.68
2019-05-21T22:26:07.588Z,89.09
2019-05-21T22:29:12.523Z,88.80
2019-05-21T22:32:16.842Z,88.63
2019-05-21T22:35:20.688Z,88.39
2019-05-21T22:38:24.453Z,88.69
2019-05-21T22:41:28.577Z,88.56
2019-05-21T22:44:33.064Z,88.98
2019-05-21T22:47:37.031Z,89.31
2019-05-21T22:50:40.810Z,89.48
2019-05-21T22:53:44.586Z,89.98
2019-05-21T22:56:48.476Z,90.17
2019-05-21T22:59:52.270Z,89.57
2019-05-21T23:02:56.425Z,90.03
2019-05-21T23:06:00.196Z,90.01
2019-05-21T23:09:05.282Z,89.72
2019-05-21T23:12:09.267Z,90.23
2019-05-21T23:15:24.308Z,90.10
2019-05-21T23:18:19.671Z,90.79
2019-05-21T23:21:23.808Z,90.48
2019-05-21T23:24:29.759Z,90.31
2019-05-21T23:27:34.131Z,90.75
2019-05-21T23:30:38.213Z,90.26
2019-05-21T23:33:42.087Z,90.35
2019-05-21T23:36:47.990Z,90.20
2019-05-21T23:39:52.892Z,90.55
2019-05-21T23:42:57.198Z,89.84
2019-05-21T23:46:01.265Z,90.25
2019-05-21T23:49:05.346Z,89.94
2019-05-21T23:52:09.641Z,89.46
2019-05-21T23:55:14.763Z,90.16
2019-05-21T23:58:18.954Z,89.74
